createdAt,value
2023-05-04T00:02:13.302Z,6.88
2023-05-04T00:04:42.766Z,6.86
2023-05-04T00:07:12.235Z,6.86
2023-05-04T00:09:40.273Z,6.82
2023-05-04T00:12:08.353Z,6.80
2023-05-04T00:14:36.512Z,6.79
2023-05-04T00:17:06.460Z,6.77
2023-05-04T00:19:34.657Z,6.76
2023-05-04T00:22:02.570Z,6.78
2023-05-04T00:24:31.823Z,6.76
2023-05-04T00:26:59.884Z,6.75
2023-05-04T00:29:27.811Z,6.73
2023-05-04T00:31:55.784Z,6.76
2023-05-04T00:34:24.187Z,6.73
2023-05-04T00:36:52.059Z,6.67
2023-05-04T00:39:20.098Z,6.61
2023-05-04T00:41:49.312Z,6.57
2023-05-04T00:44:17.206Z,6.52
2023-05-04T00:46:45.370Z,6.51
2023-05-04T00:49:13.760Z,6.46
2023-05-04T00:51:41.967Z,6.44
2023-05-04T00:54:10.501Z,6.41
2023-05-04T00:56:42.113Z,6.40
2023-05-04T00:59:11.388Z,6.37
2023-05-04T01:01:39.376Z,6.36
2023-05-04T01:04:07.750Z,6.34
2023-05-04T01:06:43.151Z,6.33
2023-05-04T01:09:17.204Z,6.31
2023-05-04T01:11:49.917Z,6.28
2023-05-04T01:14:21.832Z,6.26
2023-05-04T01:16:51.428Z,6.23
2023-05-04T01:19:19.385Z,6.21
2023-05-04T01:21:48.944Z,6.19
2023-05-04T01:24:16.975Z,6.17
2023-05-04T01:26:47.341Z,6.17
2023-05-04T01:29:18.005Z,6.17
2023-05-04T01:31:47.139Z,6.14
2023-05-04T01:34:15.934Z,6.13
2023-05-04T01:36:45.556Z,6.11
2023-05-04T01:39:14.890Z,6.11
2023-05-04T01:41:42.834Z,6.07
2023-05-04T01:44:11.177Z,6.04
2023-05-04T01:46:39.208Z,6.05
2023-05-04T01:49:08.060Z,6.03
2023-05-04T01:51:36.035Z,6.00
2023-05-04T01:54:03.970Z,5.91
2023-05-04T01:56:33.627Z,5.88
2023-05-04T01:59:01.557Z,5.65
2023-05-04T02:01:29.496Z,5.46
2023-05-04T02:03:57.661Z,5.43
2023-05-04T02:06:25.876Z,5.37
2023-05-04T02:08:53.760Z,5.31
2023-05-04T02:11:21.725Z,5.47
2023-05-04T02:13:51.044Z,5.46
2023-05-04T02:16:18.967Z,5.19
2023-05-04T02:18:47.347Z,5.07
2023-05-04T02:21:16.818Z,5.11
2023-05-04T02:23:45.321Z,5.25
2023-05-04T02:26:13.239Z,5.35
2023-05-04T02:28:41.093Z,5.38
2023-05-04T02:31:11.738Z,5.24
2023-05-04T02:33:39.719Z,5.17
2023-05-04T02:36:10.277Z,5.21
2023-05-04T02:38:38.135Z,5.03
2023-05-04T02:41:06.352Z,5.20
2023-05-04T02:43:34.372Z,5.20
2023-05-04T02:46:02.462Z,5.11
2023-05-04T02:48:31.788Z,5.21
2023-05-04T02:51:00.221Z,5.18
2023-05-04T02:53:28.103Z,5.18
2023-05-04T02:55:56.076Z,4.80
2023-05-04T02:58:23.981Z,4.76
2023-05-04T03:00:54.742Z,4.86
2023-05-04T03:03:22.757Z,4.80
2023-05-04T03:05:52.007Z,4.74
2023-05-04T03:08:20.070Z,4.78
2023-05-04T03:10:48.072Z,4.74
2023-05-04T03:13:16.869Z,4.56
2023-05-04T03:15:45.001Z,4.63
2023-05-04T03:18:13.292Z,4.83
2023-05-04T03:20:41.214Z,5.00
2023-05-04T03:23:13.296Z,5.06
2023-05-04T03:25:41.184Z,4.92
2023-05-04T03:28:09.120Z,4.58
2023-05-04T03:30:37.352Z,4.32
2023-05-04T03:33:05.409Z,4.24
2023-05-04T03:35:33.822Z,4.11
2023-05-04T03:38:06.584Z,4.37
2023-05-04T03:40:35.897Z,4.61
2023-05-04T03:43:04.096Z,4.75
2023-05-04T03:45:32.546Z,4.88
2023-05-04T03:48:00.501Z,4.85
2023-05-04T03:50:29.149Z,4.90
2023-05-04T03:52:57.133Z,4.84
2023-05-04T03:55:27.931Z,4.83
2023-05-04T03:57:57.161Z,4.95
2023-05-04T04:00:25.133Z,4.92
2023-05-04T04:03:02.325Z,4.95
2023-05-04T04:05:30.918Z,5.01
2023-05-04T04:07:58.856Z,4.91
2023-05-04T04:10:27.947Z,4.77
2023-05-04T04:12:57.225Z,4.72
2023-05-04T04:15:25.158Z,4.63
2023-05-04T04:17:53.031Z,4.60
2023-05-04T04:20:21.063Z,4.61
2023-05-04T04:22:48.975Z,4.68
2023-05-04T04:25:17.042Z,4.79
2023-05-04T04:27:44.901Z,4.84
2023-05-04T04:30:15.444Z,4.86
2023-05-04T04:32:43.637Z,4.87
2023-05-04T04:35:11.472Z,4.82
2023-05-04T04:37:39.336Z,4.83
2023-05-04T04:40:08.919Z,4.94
2023-05-04T04:42:36.887Z,4.99
2023-05-04T04:45:05.981Z,5.02
2023-05-04T04:47:36.118Z,5.10
2023-05-04T04:50:04.749Z,5.18
2023-05-04T04:52:36.585Z,5.21
2023-05-04T04:55:06.640Z,5.10
2023-05-04T04:57:35.265Z,5.21
2023-05-04T05:02:37.861Z,5.36
2023-05-04T05:05:07.076Z,5.43
2023-05-04T05:07:35.304Z,5.45
2023-05-04T05:10:03.918Z,5.45
2023-05-04T05:12:32.139Z,5.53
2023-05-04T05:15:00.239Z,5.55
2023-05-04T05:17:28.161Z,5.62
2023-05-04T05:19:57.674Z,5.71
2023-05-04T05:22:25.679Z,5.80
2023-05-04T05:24:54.721Z,5.86
2023-05-04T05:27:22.596Z,5.94
2023-05-04T05:29:51.971Z,5.99
2023-05-04T05:32:19.874Z,6.10
2023-05-04T05:34:48.391Z,6.23
2023-05-04T05:37:19.915Z,6.29
2023-05-04T05:39:47.851Z,6.37
2023-05-04T05:42:15.771Z,6.48
2023-05-04T05:44:43.600Z,6.52
2023-05-04T05:47:11.430Z,6.56
2023-05-04T05:49:39.333Z,6.64
2023-05-04T05:52:07.235Z,6.70
2023-05-04T05:54:36.920Z,6.75
2023-05-04T05:57:05.007Z,6.94
2023-05-04T05:59:32.872Z,7.04
2023-05-04T06:02:01.057Z,7.09
2023-05-04T06:04:29.264Z,7.27
2023-05-04T06:06:57.229Z,7.43
2023-05-04T06:09:27.353Z,7.50
2023-05-04T06:11:56.543Z,7.71
2023-05-04T06:14:24.374Z,7.67
2023-05-04T06:16:52.349Z,7.71
2023-05-04T06:19:20.197Z,7.81
2023-05-04T06:21:49.972Z,8.08
2023-05-04T06:24:17.894Z,8.27
2023-05-04T06:26:46.368Z,8.47
2023-05-04T06:29:18.029Z,8.60
2023-05-04T06:31:48.281Z,8.66
2023-05-04T06:34:18.031Z,8.83
2023-05-04T06:36:46.217Z,9.00
2023-05-04T06:39:14.184Z,9.28
2023-05-04T06:41:42.317Z,9.61
2023-05-04T06:44:10.361Z,9.82
2023-05-04T06:46:39.688Z,9.87
2023-05-04T06:49:07.550Z,9.87
2023-05-04T06:51:39.029Z,10.03
2023-05-04T06:54:07.245Z,10.25
2023-05-04T06:56:35.104Z,10.38
2023-05-04T06:59:03.031Z,10.22
2023-05-04T07:01:30.895Z,10.44
2023-05-04T07:04:00.291Z,10.55
2023-05-04T07:06:29.495Z,10.44
2023-05-04T07:08:57.477Z,10.53
2023-05-04T07:11:26.060Z,10.81
2023-05-04T07:13:53.892Z,10.99
2023-05-04T07:16:21.905Z,10.98
2023-05-04T07:18:49.813Z,10.76
2023-05-04T07:23:49.901Z,11.01
2023-05-04T07:26:18.302Z,11.05
2023-05-04T07:28:46.765Z,11.41
2023-05-04T07:31:15.920Z,11.68
2023-05-04T07:33:44.230Z,11.85
2023-05-04T07:36:12.142Z,11.97
2023-05-04T07:38:41.415Z,11.96
2023-05-04T07:41:09.235Z,11.91
2023-05-04T07:43:37.465Z,11.96
2023-05-04T07:46:05.401Z,12.45
2023-05-04T07:48:35.143Z,12.04
2023-05-04T07:51:03.011Z,12.15
2023-05-04T07:53:30.907Z,12.19
2023-05-04T07:56:08.881Z,12.21
2023-05-04T07:58:36.817Z,12.26
2023-05-04T08:01:05.187Z,12.25
2023-05-04T08:03:33.061Z,12.25
2023-05-04T08:06:01.158Z,12.51
2023-05-04T08:08:29.027Z,12.94
2023-05-04T08:11:08.021Z,13.12
2023-05-04T08:13:41.475Z,14.07
2023-05-04T08:16:10.081Z,14.44
2023-05-04T08:18:38.401Z,14.39
2023-05-04T08:21:06.822Z,14.37
2023-05-04T08:23:34.912Z,13.86
2023-05-04T08:26:03.465Z,14.67
2023-05-04T08:28:31.808Z,15.42
2023-05-04T08:31:03.407Z,15.65
2023-05-04T08:33:31.971Z,14.88
2023-05-04T08:36:02.164Z,14.94
2023-05-04T08:38:30.285Z,15.05
2023-05-04T08:40:58.742Z,15.48
2023-05-04T08:43:26.870Z,14.88
2023-05-04T08:45:54.819Z,13.82
2023-05-04T08:48:24.324Z,14.10
2023-05-04T08:50:52.448Z,14.27
2023-05-04T08:53:21.368Z,14.26
2023-05-04T08:55:50.983Z,13.84
2023-05-04T08:58:20.291Z,13.76
2023-05-04T09:00:48.291Z,13.68
2023-05-04T09:03:17.150Z,13.61
2023-05-04T09:05:47.448Z,13.37
2023-05-04T09:08:15.772Z,12.90
2023-05-04T09:10:43.612Z,13.04
2023-05-04T09:13:11.507Z,13.26
2023-05-04T09:15:39.354Z,13.30
2023-05-04T09:18:09.927Z,13.67
2023-05-04T09:20:49.295Z,13.94
2023-05-04T09:23:18.059Z,13.58
2023-05-04T09:25:50.337Z,13.37
2023-05-04T09:28:20.062Z,13.64
2023-05-04T09:30:51.677Z,13.67
2023-05-04T09:33:27.321Z,13.44
2023-05-04T09:35:57.254Z,13.86
2023-05-04T09:38:28.406Z,14.09
2023-05-04T09:40:56.691Z,14.51
2023-05-04T09:43:24.669Z,14.95
2023-05-04T09:45:53.407Z,15.00
2023-05-04T09:48:25.677Z,15.13
2023-05-04T09:50:54.709Z,14.84
2023-05-04T09:53:26.031Z,14.79
2023-05-04T09:56:05.750Z,15.40
2023-05-04T09:58:35.746Z,16.28
2023-05-04T10:01:03.783Z,15.92
2023-05-04T10:03:31.898Z,15.67
2023-05-04T10:06:00.361Z,15.08
2023-05-04T10:08:29.871Z,14.86
2023-05-04T10:10:58.415Z,13.97
2023-05-04T10:13:26.946Z,13.85
2023-05-04T10:16:10.842Z,13.82
2023-05-04T10:19:08.994Z,13.76
2023-05-04T10:21:47.357Z,13.85
2023-05-04T10:24:32.466Z,14.29
2023-05-04T10:27:06.073Z,14.79
2023-05-04T10:29:34.428Z,15.01
2023-05-04T10:32:02.653Z,15.13
2023-05-04T10:34:31.864Z,15.29
2023-05-04T10:37:01.112Z,15.08
2023-05-04T10:39:31.634Z,15.04
2023-05-04T10:42:01.690Z,14.82
2023-05-04T10:44:30.174Z,15.20
2023-05-04T10:46:59.909Z,15.68
2023-05-04T10:49:28.266Z,15.80
2023-05-04T10:52:10.427Z,15.98
2023-05-04T10:54:41.251Z,15.85
2023-05-04T10:57:10.259Z,15.85
2023-05-04T10:59:38.908Z,15.77
2023-05-04T11:02:07.757Z,15.82
2023-05-04T11:04:36.420Z,15.94
2023-05-04T11:07:06.502Z,16.05
2023-05-04T11:09:40.795Z,15.93
2023-05-04T11:12:10.778Z,15.85
2023-05-04T11:14:43.138Z,15.97
2023-05-04T11:19:49.609Z,15.81
2023-05-04T11:22:17.729Z,15.88
2023-05-04T11:24:48.623Z,15.46
2023-05-04T11:27:24.346Z,15.55
2023-05-04T11:29:59.124Z,15.27
2023-05-04T11:32:35.671Z,15.39
2023-05-04T11:35:04.378Z,15.66
2023-05-04T11:37:32.686Z,15.87
2023-05-04T11:40:02.139Z,16.13
2023-05-04T11:42:30.314Z,15.94
2023-05-04T11:44:58.359Z,16.07
2023-05-04T11:47:26.711Z,15.63
2023-05-04T11:49:54.683Z,15.62
2023-05-04T11:52:24.250Z,15.34
2023-05-04T11:54:57.251Z,15.35
2023-05-04T11:57:29.099Z,15.63
2023-05-04T11:59:56.951Z,15.91
2023-05-04T12:02:25.865Z,16.07
2023-05-04T12:04:54.121Z,16.15
2023-05-04T12:07:22.271Z,16.06
2023-05-04T12:09:50.641Z,16.19
2023-05-04T12:12:21.378Z,16.24
2023-05-04T12:14:51.991Z,16.20
2023-05-04T12:17:20.420Z,16.22
2023-05-04T12:19:51.087Z,16.05
2023-05-04T12:22:19.285Z,16.18
2023-05-04T12:24:47.235Z,16.23
2023-05-04T12:27:15.497Z,16.45
2023-05-04T12:29:43.468Z,16.47
2023-05-04T12:32:12.925Z,16.41
2023-05-04T12:34:40.828Z,16.27
2023-05-04T12:37:08.691Z,16.38
2023-05-04T12:39:36.586Z,16.48
2023-05-04T12:42:05.423Z,16.29
2023-05-04T12:44:33.885Z,16.07
2023-05-04T12:47:01.765Z,16.05
2023-05-04T12:49:30.992Z,15.83
2023-05-04T12:51:58.858Z,15.69
2023-05-04T12:54:26.933Z,15.66
2023-05-04T12:56:54.809Z,15.44
2023-05-04T12:59:23.541Z,15.25
2023-05-04T13:01:51.608Z,15.50
2023-05-04T13:04:19.788Z,15.67
2023-05-04T13:06:49.054Z,15.86
2023-05-04T13:09:17.036Z,16.25
2023-05-04T13:11:45.288Z,16.06
2023-05-04T13:14:15.080Z,16.11
2023-05-04T13:16:43.014Z,16.03
2023-05-04T13:19:10.871Z,16.19
2023-05-04T13:21:38.728Z,16.03
2023-05-04T13:24:08.542Z,16.03
2023-05-04T13:26:36.352Z,16.05
2023-05-04T13:29:05.456Z,16.16
2023-05-04T13:31:33.421Z,16.21
2023-05-04T13:34:01.278Z,16.12
2023-05-04T13:36:29.198Z,16.18
2023-05-04T13:38:57.126Z,16.03
2023-05-04T13:41:26.407Z,16.11
2023-05-04T13:43:54.588Z,16.14
2023-05-04T13:46:23.101Z,16.10
2023-05-04T13:48:51.021Z,16.09
2023-05-04T13:51:18.934Z,16.15
2023-05-04T13:53:46.800Z,16.29
2023-05-04T13:56:14.959Z,16.04
2023-05-04T13:58:44.356Z,16.01
2023-05-04T14:01:12.295Z,15.94
2023-05-04T14:03:40.794Z,15.91
2023-05-04T14:06:09.525Z,15.79
2023-05-04T14:08:38.639Z,15.89
2023-05-04T14:11:06.559Z,15.53
2023-05-04T14:13:34.461Z,15.50
2023-05-04T14:16:03.997Z,15.40
2023-05-04T14:18:32.268Z,15.32
2023-05-04T14:21:01.084Z,15.35
2023-05-04T14:23:29.138Z,15.18
2023-05-04T14:25:57.244Z,15.06
2023-05-04T14:28:26.164Z,15.22
2023-05-04T14:30:54.164Z,15.13
2023-05-04T14:33:23.369Z,15.19
2023-05-04T14:35:51.486Z,15.20
2023-05-04T14:38:19.424Z,15.09
2023-05-04T14:40:49.553Z,14.93
2023-05-04T14:43:17.718Z,14.87
2023-05-04T14:45:47.164Z,14.74
2023-05-04T14:48:15.189Z,14.48
2023-05-04T14:50:45.314Z,14.58
2023-05-04T14:53:13.345Z,14.66
2023-05-04T14:55:42.048Z,14.69
2023-05-04T14:58:10.998Z,14.64
2023-05-04T15:00:41.291Z,14.52
2023-05-04T15:03:09.925Z,14.35
2023-05-04T15:05:38.026Z,14.14
2023-05-04T15:08:07.797Z,14.14
2023-05-04T15:10:35.648Z,14.12
2023-05-04T15:13:03.733Z,14.02
2023-05-04T15:15:31.637Z,14.03
2023-05-04T15:17:59.553Z,13.97
2023-05-04T15:20:27.666Z,13.78
2023-05-04T15:22:55.646Z,13.78
2023-05-04T15:25:25.244Z,13.73
2023-05-04T15:27:53.234Z,13.72
2023-05-04T15:30:21.552Z,13.65
2023-05-04T15:32:49.599Z,13.65
2023-05-04T15:35:18.761Z,13.76
2023-05-04T15:37:47.016Z,13.66
2023-05-04T15:40:15.214Z,13.67
2023-05-04T15:42:44.524Z,13.65
2023-05-04T15:45:12.462Z,13.47
2023-05-04T15:47:40.409Z,13.41
2023-05-04T15:50:09.079Z,13.39
2023-05-04T15:52:37.653Z,13.33
2023-05-04T15:55:16.832Z,13.27
2023-05-04T15:57:54.001Z,13.28
2023-05-04T16:00:22.882Z,13.20
2023-05-04T16:02:50.914Z,13.09
2023-05-04T16:05:18.879Z,13.07
2023-05-04T16:07:46.807Z,13.03
2023-05-04T16:10:14.697Z,13.05
2023-05-04T16:12:42.594Z,12.96
2023-05-04T16:15:12.586Z,12.99
2023-05-04T16:17:41.676Z,13.11
2023-05-04T16:20:10.631Z,13.04
2023-05-04T16:22:39.193Z,12.91
2023-05-04T16:25:09.529Z,12.72
2023-05-04T16:27:39.096Z,12.69
2023-05-04T16:30:08.795Z,12.71
2023-05-04T16:32:40.932Z,12.70
2023-05-04T16:35:09.490Z,12.68
2023-05-04T16:37:38.346Z,12.77
2023-05-04T16:40:13.549Z,12.70
2023-05-04T16:42:41.500Z,12.61
2023-05-04T16:45:11.339Z,12.60
2023-05-04T16:47:41.514Z,12.53
2023-05-04T16:50:10.344Z,12.60
2023-05-04T16:52:38.615Z,12.59
2023-05-04T16:55:09.244Z,12.46
2023-05-04T16:57:39.436Z,12.49
2023-05-04T17:00:09.302Z,12.40
2023-05-04T17:02:37.949Z,12.35
2023-05-04T17:05:10.344Z,12.36
2023-05-04T17:07:39.637Z,12.33
2023-05-04T17:10:09.127Z,12.35
2023-05-04T17:12:37.467Z,12.30
2023-05-04T17:15:06.367Z,12.22
2023-05-04T17:17:34.345Z,12.21
2023-05-04T17:20:02.477Z,12.24
2023-05-04T17:22:31.756Z,12.25
2023-05-04T17:25:00.220Z,12.22
2023-05-04T17:27:30.025Z,12.24
2023-05-04T17:29:58.056Z,12.33
2023-05-04T17:32:26.010Z,12.33
2023-05-04T17:34:54.692Z,12.26
2023-05-04T17:37:22.692Z,12.13
2023-05-04T17:39:52.071Z,12.29
2023-05-04T17:42:20.108Z,12.09
2023-05-04T17:44:48.039Z,12.15
2023-05-04T17:47:16.292Z,12.17
2023-05-04T17:49:44.323Z,12.15
2023-05-04T17:52:13.714Z,12.07
2023-05-04T17:54:41.838Z,12.10
2023-05-04T17:57:11.490Z,12.14
2023-05-04T17:59:39.720Z,11.99
2023-05-04T18:02:09.257Z,11.81
2023-05-04T18:04:37.642Z,11.78
2023-05-04T18:07:05.864Z,11.73
2023-05-04T18:09:33.998Z,11.63
2023-05-04T18:12:03.171Z,11.55
2023-05-04T18:14:34.800Z,11.55
2023-05-04T18:17:02.836Z,11.55
2023-05-04T18:19:34.297Z,11.54
2023-05-04T18:22:02.244Z,11.55
2023-05-04T18:24:31.954Z,11.47
2023-05-04T18:27:01.923Z,11.44
2023-05-04T18:29:30.782Z,11.27
2023-05-04T18:32:01.234Z,11.29
2023-05-04T18:34:29.478Z,11.33
2023-05-04T18:36:57.467Z,11.30
2023-05-04T18:39:25.491Z,11.30
2023-05-04T18:41:53.373Z,11.12
2023-05-04T18:44:21.501Z,11.03
2023-05-04T18:46:49.426Z,11.00
2023-05-04T18:49:18.672Z,11.04
2023-05-04T18:51:46.588Z,10.81
2023-05-04T18:54:16.154Z,10.84
2023-05-04T18:56:44.149Z,10.83
2023-05-04T18:59:12.196Z,10.79
2023-05-04T19:01:40.313Z,10.75
2023-05-04T19:04:08.451Z,10.78
2023-05-04T19:06:38.082Z,10.85
2023-05-04T19:09:12.620Z,10.75
2023-05-04T19:11:41.296Z,10.67
2023-05-04T19:14:10.216Z,10.62
2023-05-04T19:16:38.205Z,10.52
2023-05-04T19:19:06.728Z,10.52
2023-05-04T19:21:34.823Z,10.53
2023-05-04T19:24:04.378Z,10.49
2023-05-04T19:26:32.427Z,10.29
2023-05-04T19:29:00.447Z,10.40
2023-05-04T19:31:28.715Z,10.27
2023-05-04T19:33:56.732Z,10.20
2023-05-04T19:36:24.754Z,10.21
2023-05-04T19:38:52.904Z,10.14
2023-05-04T19:41:22.290Z,10.12
2023-05-04T19:43:50.409Z,10.08
2023-05-04T19:46:18.380Z,10.02
2023-05-04T19:48:46.293Z,10.01
2023-05-04T19:51:14.464Z,10.10
2023-05-04T19:53:42.658Z,9.99
2023-05-04T19:56:10.867Z,9.91
2023-05-04T19:58:40.282Z,9.80
2023-05-04T20:01:08.268Z,9.82
2023-05-04T20:03:36.428Z,9.90
2023-05-04T20:06:04.613Z,9.84
2023-05-04T20:08:32.578Z,9.91
2023-05-04T20:11:00.957Z,9.82
2023-05-04T20:13:28.872Z,9.81
2023-05-04T20:15:58.081Z,9.82
2023-05-04T20:18:26.105Z,9.73
2023-05-04T20:20:54.060Z,9.81
2023-05-04T20:23:22.059Z,9.75
2023-05-04T20:25:49.974Z,9.69
2023-05-04T20:28:18.025Z,9.56
2023-05-04T20:30:46.790Z,9.62
2023-05-04T20:33:16.093Z,9.68
2023-05-04T20:35:45.217Z,9.58
2023-05-04T20:38:13.613Z,9.56
2023-05-04T20:40:41.781Z,9.56
2023-05-04T20:43:09.665Z,9.49
2023-05-04T20:45:37.561Z,9.47
2023-05-04T20:48:06.267Z,9.48
2023-05-04T20:50:36.018Z,9.45
2023-05-04T20:53:04.333Z,9.44
2023-05-04T20:55:32.322Z,9.40
2023-05-04T20:58:00.216Z,9.42
2023-05-04T21:00:28.163Z,9.42
2023-05-04T21:02:56.480Z,9.42
2023-05-04T21:05:24.564Z,9.43
2023-05-04T21:07:53.885Z,9.38
2023-05-04T21:10:22.396Z,9.39
2023-05-04T21:12:50.423Z,9.34
2023-05-04T21:15:18.551Z,9.35
2023-05-04T21:17:47.067Z,9.31
2023-05-04T21:20:15.048Z,9.34
2023-05-04T21:22:43.040Z,9.27
2023-05-04T21:25:12.315Z,9.29
2023-05-04T21:27:41.580Z,9.32
2023-05-04T21:30:11.413Z,9.26
2023-05-04T21:32:39.311Z,9.27
2023-05-04T21:35:08.102Z,9.28
2023-05-04T21:37:35.977Z,9.23
2023-05-04T21:40:04.003Z,9.25
2023-05-04T21:42:33.339Z,9.23
2023-05-04T21:45:01.393Z,9.27
2023-05-04T21:47:29.532Z,9.29
2023-05-04T21:49:57.476Z,9.25
2023-05-04T21:52:25.423Z,9.20
2023-05-04T21:54:53.311Z,9.23
2023-05-04T21:57:21.454Z,9.16
2023-05-04T21:59:51.994Z,9.23
2023-05-04T22:02:19.863Z,9.17
2023-05-04T22:04:47.902Z,9.19
2023-05-04T22:07:15.916Z,9.13
2023-05-04T22:09:43.871Z,9.17
2023-05-04T22:12:11.776Z,9.05
2023-05-04T22:14:41.166Z,9.15
2023-05-04T22:17:11.746Z,9.09
2023-05-04T22:19:39.600Z,9.13
2023-05-04T22:22:07.533Z,9.09
2023-05-04T22:24:35.732Z,9.10
2023-05-04T22:27:03.683Z,9.03
2023-05-04T22:29:34.743Z,9.06
2023-05-04T22:32:02.649Z,9.05
2023-05-04T22:34:32.164Z,8.97
2023-05-04T22:37:00.097Z,9.01
2023-05-04T22:39:28.152Z,8.96
2023-05-04T22:41:56.250Z,8.98
2023-05-04T22:44:24.095Z,9.01
2023-05-04T22:46:51.962Z,8.93
2023-05-04T22:49:19.946Z,8.82
2023-05-04T22:51:49.226Z,8.66
2023-05-04T22:54:17.069Z,8.62
2023-05-04T22:56:44.920Z,8.62
2023-05-04T22:59:12.775Z,8.64
2023-05-04T23:01:43.297Z,8.66
2023-05-04T23:04:11.730Z,8.59
2023-05-04T23:06:39.724Z,8.50
2023-05-04T23:09:08.962Z,8.49
2023-05-04T23:11:36.872Z,8.51
2023-05-04T23:14:04.755Z,8.59
2023-05-04T23:16:32.837Z,8.51
2023-05-04T23:19:00.726Z,8.53
2023-05-04T23:21:28.611Z,8.44
2023-05-04T23:23:56.480Z,8.40
2023-05-04T23:26:25.809Z,8.40
2023-05-04T23:28:53.752Z,8.40
2023-05-04T23:31:21.745Z,8.40
2023-05-04T23:33:50.002Z,8.52
2023-05-04T23:36:17.899Z,8.38
2023-05-04T23:38:45.823Z,8.34
2023-05-04T23:41:14.848Z,8.39
2023-05-04T23:43:44.061Z,8.37
2023-05-04T23:46:12.037Z,8.39
2023-05-04T23:48:39.955Z,8.41
2023-05-04T23:51:08.952Z,8.44
2023-05-04T23:53:37.148Z,8.49
2023-05-04T23:56:06.322Z,8.44
2023-05-04T23:58:35.159Z,8.48
